Steward, Illinois
Current Conditions -  °F | °C
As of 1:35 AM on Wednesday 26 Nov 2014 (Local Time) from KRPJ Reporting Station
Haze Haze  
Wind Chill: -4°   Ceiling: Unl
Heat Index: 10°   Visibility: 5mi
Dew Point:   Wind: 9mph
Humidity: 92%   Direction: 110°ESE
Pressure: 30.14"   Gusts: NA
Location:  41.85°N, 89.02°W
Report Text: KRPJ 260735Z AUTO 11008KT 5SM BR CLR M12/M13 A3014 RMK AO2 T11251135
Loading
Personal Weather Stations






























Interactive Weather Map New forecast layout! Learn more

10-Day Weather Forecast

Advertisements
Track Severe Weather on mobile